createdAt,value
2022-11-29T00:01:01.293Z,8.75
2022-11-29T00:03:28.622Z,7.85
2022-11-29T00:05:55.950Z,5.75
2022-11-29T00:08:23.898Z,6.13
2022-11-29T00:10:50.891Z,5.78
2022-11-29T00:13:18.079Z,6.68
2022-11-29T00:15:44.886Z,7.22
2022-11-29T00:18:11.720Z,6.72
2022-11-29T00:20:39.518Z,7.30
2022-11-29T00:23:06.486Z,7.15
2022-11-29T00:25:33.484Z,7.05
2022-11-29T00:28:00.326Z,6.25
2022-11-29T00:30:28.118Z,5.85
2022-11-29T00:32:55.214Z,6.78
2022-11-29T00:35:22.019Z,6.40
2022-11-29T00:37:48.827Z,6.65
2022-11-29T00:40:15.676Z,6.13
2022-11-29T00:42:42.539Z,6.13
2022-11-29T00:45:09.819Z,8.50
2022-11-29T00:47:37.072Z,7.70
2022-11-29T00:50:04.725Z,5.65
2022-11-29T00:52:31.575Z,6.13
2022-11-29T00:54:58.381Z,6.43
2022-11-29T00:57:25.241Z,7.28
2022-11-29T00:59:52.027Z,6.60
2022-11-29T01:02:18.858Z,6.35
2022-11-29T01:04:46.044Z,7.60
2022-11-29T01:07:13.181Z,6.60
2022-11-29T01:09:40.179Z,6.82
2022-11-29T01:12:07.174Z,6.60
2022-11-29T01:14:34.037Z,6.97
2022-11-29T01:17:00.937Z,7.30
2022-11-29T01:19:27.770Z,6.20
2022-11-29T01:21:54.604Z,6.30
2022-11-29T01:24:22.303Z,6.03
2022-11-29T01:26:49.123Z,6.40
2022-11-29T01:29:15.906Z,5.00
2022-11-29T01:31:42.868Z,7.22
2022-11-29T01:34:10.707Z,5.85
2022-11-29T01:36:37.579Z,6.38
2022-11-29T01:39:05.647Z,5.88
2022-11-29T01:41:35.112Z,6.45
2022-11-29T01:44:13.253Z,6.40
2022-11-29T01:46:45.582Z,7.60
2022-11-29T01:49:17.494Z,6.80
2022-11-29T01:52:00.737Z,6.05
2022-11-29T01:54:29.956Z,7.25
2022-11-29T01:56:58.424Z,7.20
2022-11-29T01:59:28.348Z,6.90
2022-11-29T02:02:12.097Z,8.15
2022-11-29T02:04:41.667Z,5.60
2022-11-29T02:07:09.305Z,6.82
2022-11-29T02:09:36.095Z,6.55
2022-11-29T02:12:21.055Z,5.70
2022-11-29T02:15:06.687Z,6.60
2022-11-29T02:17:33.457Z,5.05
2022-11-29T02:20:10.328Z,6.85
2022-11-29T02:23:15.030Z,5.80
2022-11-29T02:26:03.086Z,6.25
2022-11-29T02:29:04.232Z,7.68
2022-11-29T02:31:56.064Z,5.55
2022-11-29T02:34:43.295Z,5.97
2022-11-29T02:37:39.625Z,6.57
2022-11-29T02:40:06.371Z,6.30
2022-11-29T02:42:56.157Z,7.93
2022-11-29T02:45:57.632Z,7.95
2022-11-29T02:48:47.041Z,6.32
2022-11-29T02:51:13.774Z,5.85
2022-11-29T02:54:22.358Z,6.35
2022-11-29T02:57:14.503Z,4.90
2022-11-29T02:59:55.866Z,4.80
2022-11-29T03:02:38.381Z,6.57
2022-11-29T03:05:42.564Z,6.40
2022-11-29T03:08:25.121Z,5.82
2022-11-29T03:11:29.539Z,7.32
2022-11-29T03:14:24.091Z,5.35
2022-11-29T03:17:17.265Z,5.50
2022-11-29T03:20:14.030Z,5.20
2022-11-29T03:22:58.930Z,7.35
2022-11-29T03:25:35.979Z,6.10
2022-11-29T03:28:38.851Z,5.75
2022-11-29T03:31:34.563Z,4.82
2022-11-29T03:34:23.974Z,5.65
2022-11-29T03:36:58.554Z,6.97
2022-11-29T03:39:51.681Z,7.22
2022-11-29T03:42:35.418Z,6.55
2022-11-29T03:45:09.068Z,6.75
2022-11-29T03:48:00.032Z,7.20
2022-11-29T03:50:53.641Z,6.78
2022-11-29T03:53:23.870Z,7.15
2022-11-29T03:55:58.787Z,7.07
2022-11-29T03:58:52.170Z,6.90
2022-11-29T04:01:21.848Z,5.85
2022-11-29T04:04:29.877Z,5.90
2022-11-29T04:07:16.325Z,7.30
2022-11-29T04:09:55.160Z,7.75
2022-11-29T04:12:34.305Z,6.60
2022-11-29T04:15:25.836Z,7.38
2022-11-29T04:18:13.902Z,7.38
2022-11-29T04:20:52.968Z,6.32
2022-11-29T04:24:08.023Z,7.45
2022-11-29T04:26:54.072Z,7.40
2022-11-29T04:29:29.847Z,6.07
2022-11-29T04:32:22.818Z,5.80
2022-11-29T04:35:30.900Z,6.90
2022-11-29T04:38:19.527Z,5.90
2022-11-29T04:41:23.462Z,6.88
2022-11-29T04:43:58.814Z,5.25
2022-11-29T04:46:59.634Z,5.65
2022-11-29T04:50:00.336Z,5.88
2022-11-29T04:52:53.158Z,5.18
2022-11-29T04:55:49.635Z,5.65
2022-11-29T04:58:39.533Z,8.35
2022-11-29T05:01:22.013Z,5.30
2022-11-29T05:03:57.369Z,5.70
2022-11-29T05:06:43.462Z,5.63
2022-11-29T05:09:26.583Z,6.55
2022-11-29T05:12:14.942Z,7.38
2022-11-29T05:14:53.718Z,4.93
2022-11-29T05:17:39.004Z,5.53
2022-11-29T05:20:39.690Z,5.85
2022-11-29T05:23:37.446Z,5.40
2022-11-29T05:26:51.726Z,5.20
2022-11-29T05:29:34.342Z,5.68
2022-11-29T05:32:07.210Z,6.57
2022-11-29T05:34:37.194Z,5.03
2022-11-29T05:37:26.934Z,5.38
2022-11-29T05:40:20.496Z,6.57
2022-11-29T05:43:06.757Z,5.90
2022-11-29T05:46:00.725Z,5.05
2022-11-29T05:49:06.354Z,6.57
2022-11-29T05:54:23.734Z,5.47
2022-11-29T05:57:13.039Z,6.32
2022-11-29T05:59:41.736Z,6.50
2022-11-29T06:02:23.670Z,6.80
2022-11-29T06:05:28.555Z,6.60
2022-11-29T06:08:05.229Z,7.32
2022-11-29T06:10:36.502Z,5.90
2022-11-29T06:13:18.785Z,6.28
2022-11-29T06:16:04.964Z,6.13
2022-11-29T06:19:09.091Z,6.32
2022-11-29T06:21:52.412Z,5.78
2022-11-29T06:24:56.516Z,8.60
2022-11-29T06:27:32.331Z,6.47
2022-11-29T06:30:09.222Z,5.53
2022-11-29T06:32:42.183Z,6.15
2022-11-29T06:35:36.290Z,6.38
2022-11-29T06:38:24.863Z,7.18
2022-11-29T06:40:57.223Z,7.07
2022-11-29T06:43:27.427Z,6.60
2022-11-29T06:46:11.225Z,6.22
2022-11-29T06:48:49.527Z,6.22
2022-11-29T06:51:44.781Z,6.03
2022-11-29T06:54:41.023Z,5.45
2022-11-29T06:57:38.407Z,6.50
2022-11-29T07:00:20.879Z,7.00
2022-11-29T07:03:06.572Z,6.15
2022-11-29T07:05:36.889Z,6.85
2022-11-29T07:08:17.461Z,5.88
2022-11-29T07:10:44.990Z,4.93
2022-11-29T07:13:13.561Z,6.43
2022-11-29T07:16:02.343Z,6.22
2022-11-29T07:18:37.983Z,6.25
2022-11-29T07:21:29.051Z,7.57
2022-11-29T07:24:22.568Z,7.75
2022-11-29T07:27:24.590Z,6.85
2022-11-29T07:30:15.332Z,6.78
2022-11-29T07:32:51.351Z,7.15
2022-11-29T07:35:32.303Z,5.90
2022-11-29T07:38:24.078Z,6.05
2022-11-29T07:41:09.170Z,5.90
2022-11-29T07:43:42.443Z,5.30
2022-11-29T07:46:09.429Z,6.55
2022-11-29T07:48:36.393Z,6.00
2022-11-29T07:51:03.507Z,6.57
2022-11-29T07:53:30.600Z,5.38
2022-11-29T07:55:58.589Z,6.35
2022-11-29T07:58:25.587Z,6.97
2022-11-29T08:00:52.521Z,6.53
2022-11-29T08:03:19.378Z,6.85
2022-11-29T08:05:47.707Z,5.90
2022-11-29T08:08:15.091Z,5.90
2022-11-29T08:10:41.999Z,6.85
2022-11-29T08:13:08.834Z,6.07
2022-11-29T08:15:35.730Z,7.00
2022-11-29T08:18:03.463Z,5.28
2022-11-29T08:20:30.288Z,6.10
2022-11-29T08:22:59.371Z,7.07
2022-11-29T08:25:27.450Z,5.57
2022-11-29T08:27:54.827Z,7.43
2022-11-29T08:30:22.431Z,6.65
2022-11-29T08:32:51.707Z,6.78
2022-11-29T08:35:20.603Z,7.13
2022-11-29T08:37:47.625Z,6.60
2022-11-29T08:40:14.670Z,6.20
2022-11-29T08:42:41.542Z,5.30
2022-11-29T08:45:09.720Z,5.93
2022-11-29T08:47:36.935Z,6.28
2022-11-29T08:50:12.320Z,5.88
2022-11-29T08:53:03.423Z,5.50
2022-11-29T08:55:48.477Z,5.80
2022-11-29T08:58:16.094Z,5.28
2022-11-29T09:00:46.534Z,5.25
2022-11-29T09:03:31.955Z,5.85
2022-11-29T09:05:59.692Z,5.15
2022-11-29T09:08:26.623Z,4.55
2022-11-29T09:10:56.828Z,5.35
2022-11-29T09:13:23.748Z,5.70
2022-11-29T09:15:50.629Z,5.22
2022-11-29T09:18:17.475Z,4.80
2022-11-29T09:20:44.696Z,5.70
2022-11-29T09:23:13.048Z,6.10
2022-11-29T09:25:39.924Z,5.30
2022-11-29T09:28:07.545Z,6.35
2022-11-29T09:30:36.574Z,5.18
2022-11-29T09:33:05.073Z,5.43
2022-11-29T09:35:32.901Z,5.28
2022-11-29T09:37:59.703Z,6.00
2022-11-29T09:40:42.534Z,5.88
2022-11-29T09:43:28.432Z,4.68
2022-11-29T09:46:19.544Z,5.00
2022-11-29T09:49:23.372Z,5.30
2022-11-29T09:52:29.084Z,5.50
2022-11-29T09:55:14.188Z,5.40
2022-11-29T09:57:43.997Z,5.57
2022-11-29T10:00:22.166Z,5.60
2022-11-29T10:02:59.389Z,4.80
2022-11-29T10:05:31.637Z,4.85
2022-11-29T10:08:00.762Z,5.22
2022-11-29T10:10:43.238Z,5.63
2022-11-29T10:13:25.960Z,6.28
2022-11-29T10:16:09.696Z,6.25
2022-11-29T10:18:44.289Z,5.70
2022-11-29T10:21:27.968Z,5.45
2022-11-29T10:23:57.704Z,6.25
2022-11-29T10:26:25.910Z,5.28
2022-11-29T10:28:57.558Z,5.88
2022-11-29T10:31:27.179Z,5.88
2022-11-29T10:33:56.147Z,5.75
2022-11-29T10:36:33.150Z,7.13
2022-11-29T10:39:14.429Z,6.80
2022-11-29T10:41:41.896Z,5.88
2022-11-29T10:44:14.666Z,4.70
2022-11-29T10:46:41.715Z,5.50
2022-11-29T10:49:15.186Z,5.88
2022-11-29T10:51:42.123Z,6.75
2022-11-29T10:54:29.959Z,4.72
2022-11-29T10:57:01.216Z,6.07
2022-11-29T10:59:30.637Z,5.47
2022-11-29T11:01:57.985Z,6.20
2022-11-29T11:04:44.401Z,6.05
2022-11-29T11:07:40.499Z,4.95
2022-11-29T11:10:29.392Z,5.22
2022-11-29T11:13:07.057Z,5.10
2022-11-29T11:15:34.504Z,5.47
2022-11-29T11:18:06.717Z,6.10
2022-11-29T11:20:41.135Z,4.93
2022-11-29T11:23:31.654Z,5.30
2022-11-29T11:26:07.965Z,4.78
2022-11-29T11:29:00.249Z,4.43
2022-11-29T11:31:29.086Z,4.90
2022-11-29T11:33:56.193Z,4.95
2022-11-29T11:36:26.451Z,4.57
2022-11-29T11:38:58.323Z,5.18
2022-11-29T11:41:53.884Z,4.60
2022-11-29T11:44:53.649Z,4.28
2022-11-29T11:47:27.429Z,5.18
2022-11-29T11:50:03.856Z,4.00
2022-11-29T11:52:54.815Z,4.50
2022-11-29T11:55:21.759Z,4.20
2022-11-29T11:58:09.894Z,4.47
2022-11-29T12:03:57.432Z,3.17
2022-11-29T12:06:30.133Z,3.88
2022-11-29T12:09:09.860Z,3.90
2022-11-29T12:11:56.080Z,4.05
2022-11-29T12:14:36.724Z,4.13
2022-11-29T12:17:20.906Z,3.92
2022-11-29T12:19:58.286Z,3.80
2022-11-29T12:22:31.906Z,3.25
2022-11-29T12:25:04.911Z,3.83
2022-11-29T12:27:32.068Z,3.65
2022-11-29T12:29:58.989Z,4.90
2022-11-29T12:32:40.008Z,3.38
2022-11-29T12:35:25.699Z,3.08
2022-11-29T12:38:09.086Z,4.40
2022-11-29T12:40:50.965Z,3.97
2022-11-29T12:43:31.132Z,3.92
2022-11-29T12:46:15.235Z,4.30
2022-11-29T12:48:45.003Z,3.42
2022-11-29T12:51:33.461Z,3.67
2022-11-29T12:54:19.727Z,4.03
2022-11-29T12:57:01.636Z,4.43
2022-11-29T12:59:43.580Z,3.97
2022-11-29T13:02:25.902Z,3.35
2022-11-29T13:05:15.835Z,3.67
2022-11-29T13:08:01.566Z,3.22
2022-11-29T13:10:31.400Z,2.88
2022-11-29T13:13:15.990Z,3.80
2022-11-29T13:15:46.832Z,3.33
2022-11-29T13:19:05.350Z,2.97
2022-11-29T13:21:55.106Z,3.55
2022-11-29T13:24:36.072Z,2.80
2022-11-29T13:27:07.272Z,3.33
2022-11-29T13:29:34.776Z,3.78
2022-11-29T13:32:05.588Z,2.83
2022-11-29T13:34:45.497Z,3.25
2022-11-29T13:37:28.008Z,3.15
2022-11-29T13:40:16.819Z,3.60
2022-11-29T13:43:05.459Z,4.45
2022-11-29T13:45:44.912Z,4.10
2022-11-29T13:48:49.272Z,3.58
2022-11-29T13:51:24.143Z,5.05
2022-11-29T13:53:52.035Z,3.38
2022-11-29T13:56:33.464Z,3.47
2022-11-29T13:59:03.568Z,3.53
2022-11-29T14:01:42.296Z,3.42
2022-11-29T14:04:27.398Z,3.38
2022-11-29T14:07:14.417Z,3.80
2022-11-29T14:09:50.238Z,4.88
2022-11-29T14:12:38.404Z,4.28
2022-11-29T14:15:11.207Z,4.63
2022-11-29T14:17:51.959Z,3.85
2022-11-29T14:20:25.242Z,4.43
2022-11-29T14:23:04.245Z,4.57
2022-11-29T14:25:51.833Z,3.97
2022-11-29T14:28:21.980Z,5.07
2022-11-29T14:31:03.204Z,4.53
2022-11-29T14:33:54.662Z,4.55
2022-11-29T14:36:38.216Z,3.70
2022-11-29T14:39:20.147Z,3.47
2022-11-29T14:42:18.637Z,5.03
2022-11-29T14:44:52.553Z,4.47
2022-11-29T14:47:25.582Z,4.93
2022-11-29T14:49:55.575Z,4.35
2022-11-29T14:52:29.230Z,3.83
2022-11-29T14:54:59.426Z,4.80
2022-11-29T14:57:48.258Z,4.07
2022-11-29T15:00:16.058Z,4.25
2022-11-29T15:02:48.406Z,3.70
2022-11-29T15:05:21.704Z,3.65
2022-11-29T15:08:06.654Z,4.28
2022-11-29T15:10:50.127Z,3.03
2022-11-29T15:13:23.827Z,3.33
2022-11-29T15:16:07.457Z,3.53
2022-11-29T15:18:54.899Z,3.53
2022-11-29T15:21:48.071Z,3.33
2022-11-29T15:24:17.119Z,3.60
2022-11-29T15:27:01.365Z,3.45
2022-11-29T15:29:29.648Z,4.13
2022-11-29T15:32:05.279Z,3.65
2022-11-29T15:34:45.303Z,3.40
2022-11-29T15:37:30.826Z,4.68
2022-11-29T15:40:11.530Z,5.35
2022-11-29T15:42:51.370Z,4.95
2022-11-29T15:45:28.992Z,4.70
2022-11-29T15:48:10.648Z,5.60
2022-11-29T15:50:39.003Z,3.75
2022-11-29T15:53:08.831Z,4.03
2022-11-29T15:55:36.260Z,4.50
2022-11-29T15:58:08.702Z,5.43
2022-11-29T16:00:36.739Z,4.50
2022-11-29T16:03:05.219Z,4.80
2022-11-29T16:05:35.078Z,4.80
2022-11-29T16:08:05.729Z,3.92
2022-11-29T16:10:37.272Z,5.07
2022-11-29T16:13:28.190Z,5.35
2022-11-29T16:16:09.749Z,5.30
2022-11-29T16:18:38.194Z,4.90
2022-11-29T16:21:07.005Z,5.38
2022-11-29T16:23:42.848Z,5.35
2022-11-29T16:26:37.775Z,5.88
2022-11-29T16:29:05.034Z,5.07
2022-11-29T16:31:37.056Z,6.18
2022-11-29T16:34:31.194Z,5.50
2022-11-29T16:37:16.016Z,5.28
2022-11-29T16:42:20.603Z,6.47
2022-11-29T16:45:03.305Z,5.47
2022-11-29T16:47:53.022Z,6.05
2022-11-29T16:50:22.579Z,6.03
2022-11-29T16:52:53.447Z,6.28
2022-11-29T16:55:23.863Z,6.20
2022-11-29T16:57:52.057Z,5.90
2022-11-29T17:00:28.953Z,7.07
2022-11-29T17:02:55.846Z,6.28
2022-11-29T17:05:22.718Z,7.28
2022-11-29T17:07:50.586Z,6.07
2022-11-29T17:10:22.656Z,7.05
2022-11-29T17:12:50.406Z,6.40
2022-11-29T17:15:17.302Z,6.72
2022-11-29T17:17:44.099Z,6.60
2022-11-29T17:20:12.425Z,6.75
2022-11-29T17:22:39.463Z,7.57
2022-11-29T17:25:06.886Z,6.97
2022-11-29T17:27:33.684Z,6.68
2022-11-29T17:30:00.498Z,6.85
2022-11-29T17:32:27.364Z,6.60
2022-11-29T17:34:54.594Z,7.20
2022-11-29T17:37:21.401Z,6.68
2022-11-29T17:39:49.138Z,6.15
2022-11-29T17:42:16.183Z,6.82
2022-11-29T17:44:43.060Z,7.30
2022-11-29T17:47:09.890Z,7.80
2022-11-29T17:49:36.694Z,8.77
2022-11-29T17:52:03.991Z,7.93
2022-11-29T17:54:33.020Z,7.05
2022-11-29T17:57:00.959Z,7.30
2022-11-29T17:59:27.779Z,7.05
2022-11-29T18:01:54.633Z,6.05
2022-11-29T18:04:21.556Z,6.55
2022-11-29T18:06:51.573Z,5.45
2022-11-29T18:09:19.569Z,6.35
2022-11-29T18:11:49.638Z,5.57
2022-11-29T18:14:20.294Z,6.13
2022-11-29T18:16:47.423Z,5.43
2022-11-29T18:19:17.227Z,5.90
2022-11-29T18:21:44.439Z,5.88
2022-11-29T18:24:11.499Z,5.35
2022-11-29T18:26:38.730Z,5.53
2022-11-29T18:29:06.819Z,6.18
2022-11-29T18:31:35.941Z,7.80
2022-11-29T18:34:07.258Z,8.48
2022-11-29T18:36:36.735Z,8.13
2022-11-29T18:39:14.226Z,7.10
2022-11-29T18:41:43.662Z,8.43
2022-11-29T18:44:13.030Z,6.65
2022-11-29T18:46:41.611Z,7.85
2022-11-29T18:49:12.111Z,6.43
2022-11-29T18:51:39.870Z,8.27
2022-11-29T18:54:06.744Z,7.72
2022-11-29T18:56:35.158Z,6.85
2022-11-29T18:59:09.584Z,7.07
2022-11-29T19:04:09.625Z,7.25
2022-11-29T19:06:40.033Z,6.50
2022-11-29T19:09:11.497Z,6.75
2022-11-29T19:11:38.852Z,6.88
2022-11-29T19:14:11.467Z,8.23
2022-11-29T19:16:41.407Z,6.95
2022-11-29T19:19:08.488Z,5.75
2022-11-29T19:21:35.538Z,6.32
2022-11-29T19:24:05.418Z,6.95
2022-11-29T19:26:32.931Z,6.07
2022-11-29T19:29:00.888Z,6.88
2022-11-29T19:31:28.466Z,7.55
2022-11-29T19:33:56.098Z,5.97
2022-11-29T19:36:25.859Z,7.28
2022-11-29T19:38:54.326Z,6.63
2022-11-29T19:41:22.913Z,7.55
2022-11-29T19:43:50.249Z,7.40
2022-11-29T19:46:22.548Z,6.97
2022-11-29T19:48:51.424Z,6.35
2022-11-29T19:51:18.822Z,7.03
2022-11-29T19:53:47.145Z,7.72
2022-11-29T19:56:17.635Z,7.30
2022-11-29T19:58:44.616Z,7.03
2022-11-29T20:01:18.073Z,6.35
2022-11-29T20:03:45.225Z,8.00
2022-11-29T20:06:13.622Z,7.00
2022-11-29T20:08:41.151Z,6.55
2022-11-29T20:11:10.194Z,6.50
2022-11-29T20:13:41.784Z,5.18
2022-11-29T20:16:11.328Z,6.35
2022-11-29T20:18:41.229Z,5.82
2022-11-29T20:21:13.307Z,7.00
2022-11-29T20:23:41.740Z,7.45
2022-11-29T20:26:23.331Z,8.38
2022-11-29T20:28:50.430Z,7.63
2022-11-29T20:31:21.418Z,7.82
2022-11-29T20:33:48.825Z,7.63
2022-11-29T20:36:28.881Z,8.20
2022-11-29T20:39:14.381Z,7.78
2022-11-29T20:41:59.587Z,8.55
2022-11-29T20:44:57.110Z,7.05
2022-11-29T20:47:26.290Z,7.82
2022-11-29T20:49:53.538Z,7.38
2022-11-29T20:52:42.772Z,7.90
2022-11-29T20:55:09.633Z,7.90
2022-11-29T20:57:38.393Z,8.05
2022-11-29T21:00:11.861Z,8.15
2022-11-29T21:02:39.274Z,8.02
2022-11-29T21:05:06.652Z,7.82
2022-11-29T21:07:33.658Z,7.60
2022-11-29T21:10:01.560Z,8.52
2022-11-29T21:12:30.264Z,6.90
2022-11-29T21:14:57.809Z,6.55
2022-11-29T21:17:30.270Z,6.93
2022-11-29T21:20:00.459Z,6.72
2022-11-29T21:23:01.487Z,6.40
2022-11-29T21:25:44.836Z,6.28
2022-11-29T21:28:14.922Z,7.13
2022-11-29T21:30:42.806Z,7.43
2022-11-29T21:33:10.596Z,7.88
2022-11-29T21:35:41.110Z,8.43
2022-11-29T21:38:14.416Z,8.20
2022-11-29T21:40:41.225Z,7.40
2022-11-29T21:43:08.202Z,6.57
2022-11-29T21:45:35.035Z,7.80
2022-11-29T21:48:01.852Z,8.18
2022-11-29T21:50:28.685Z,8.68
2022-11-29T21:52:55.501Z,7.97
2022-11-29T21:55:22.319Z,7.18
2022-11-29T21:57:49.170Z,7.45
2022-11-29T22:00:16.491Z,7.35
2022-11-29T22:02:43.651Z,8.00
2022-11-29T22:05:10.681Z,8.02
2022-11-29T22:07:37.560Z,9.30
2022-11-29T22:10:11.676Z,8.85
2022-11-29T22:12:49.385Z,7.82
2022-11-29T22:15:24.150Z,8.77
2022-11-29T22:17:51.189Z,8.95
2022-11-29T22:20:18.003Z,7.40
2022-11-29T22:22:45.350Z,7.80
2022-11-29T22:25:12.136Z,8.18
2022-11-29T22:27:38.962Z,7.07
2022-11-29T22:30:06.931Z,8.82
2022-11-29T22:32:34.520Z,7.65
2022-11-29T22:35:03.218Z,7.15
2022-11-29T22:37:32.809Z,6.70
2022-11-29T22:39:59.607Z,6.68
2022-11-29T22:42:26.394Z,7.22
2022-11-29T22:44:53.310Z,7.45
2022-11-29T22:47:20.103Z,6.50
2022-11-29T22:49:49.138Z,6.97
2022-11-29T22:52:16.054Z,6.72
2022-11-29T22:54:42.790Z,6.15
2022-11-29T22:57:10.006Z,6.32
2022-11-29T22:59:36.848Z,6.03
2022-11-29T23:02:03.753Z,6.43
2022-11-29T23:04:30.561Z,6.47
2022-11-29T23:06:57.333Z,6.63
2022-11-29T23:09:24.159Z,6.22
2022-11-29T23:11:56.208Z,7.22
2022-11-29T23:14:24.134Z,7.13
2022-11-29T23:16:51.481Z,7.18
2022-11-29T23:19:18.587Z,7.72
2022-11-29T23:21:46.257Z,7.45
2022-11-29T23:24:14.958Z,7.93
2022-11-29T23:26:45.623Z,7.30
2022-11-29T23:29:15.961Z,8.85
2022-11-29T23:31:43.386Z,7.20
2022-11-29T23:34:10.356Z,8.40
2022-11-29T23:36:37.169Z,7.72
2022-11-29T23:39:05.667Z,6.80
2022-11-29T23:41:33.309Z,7.90
2022-11-29T23:44:00.102Z,8.13
2022-11-29T23:46:27.161Z,7.95
2022-11-29T23:48:54.314Z,7.97
2022-11-29T23:51:21.384Z,7.53
2022-11-29T23:53:53.188Z,8.23
2022-11-29T23:56:21.224Z,8.32
2022-11-29T23:58:48.409Z,7.72
